In Rescue
 
Open Full Screen Window  High Contrast Mode
Wind Gusting 17 knots
12
April 19, 2021 10:12 PM EDT
Weather Information
Wind Direction
  340 °
Wind Speed
  12 kt (14 mph)
Wind Gust
  17 kt (20 mph)
Altimeter
29.89 in
Visibility
10 SM
Temperature
12° C
54° F
Dewpoint
03° C
37° F
Humidity
54%
1hr Rain Fall
00.00 in.
24hr Rain Fall
00.00 in.
Sky Condition
Overcast @ 11,000 ft
Broken @ 8,000 ft
VFR

METAR KDLZ 200212Z AUTO 34012G17KT 10SM BKN080 OVC110 12/03 A2989 RMK AO2

FAA Disclaimer: The data displayed is for advisory purposes only and is not to be used for flight planning or operations.